Latest Weather Observations for St Kilda Harbour RMYS

IDV60901

Issued at 8:11 pm EDT Tuesday 26 January 2021 (issued every 10 minutes, with the page automatically refreshed every 10 minutes)

About weather observations | Map of Melbourne area stations | Latest observations for Melbourne area | Other Formats
Station Details ID: 086220 Name: ST KILDA HARBOUR - RMYS Lat: -37.86 Lon: 144.96 Height: 6.4 m
Data from the previous 72 hours. | See also: Recent months at St Kilda Harbour RMYS
Date/Time
EDT
Temp
°C
App
Temp
°C
Dew
Point
°C
Rel
Hum
%
Delta-T
°C
Wind Press
QNH
hPa
Press
MSL
hPa
Rain since
9am
mm
Dir  Spd
km/h
Gust
km/h
Spd
kts
Gust
kts
26/08:00pm - - - - - S 35 41 19 22 - - -
26/07:30pm - - - - - S 37 44 20 24 - - -
26/07:00pm - - - - - S 32 39 17 21 - - -
26/06:30pm - - - - - SSW 33 41 18 22 - - -
26/06:00pm - - - - - SSW 33 41 18 22 - - -
26/05:30pm - - - - - S 32 39 17 21 - - -
26/05:00pm - - - - - S 33 41 18 22 - - -
26/04:30pm - - - - - S 32 39 17 21 - - -
26/04:00pm - - - - - S 30 39 16 21 - - -
26/03:30pm - - - - - S 30 41 16 22 - - -
26/03:00pm - - - - - S 33 41 18 22 - - -
26/02:30pm - - - - - SSW 41 46 22 25 - - -
26/02:00pm - - - - - S 26 35 14 19 - - -
26/01:30pm - - - - - SSW 33 39 18 21 - - -
26/01:00pm - - - - - S 33 43 18 23 - - -
26/12:30pm - - - - - SSW 37 43 20 23 - - -
26/12:00pm - - - - - S 39 46 21 25 - - -
26/11:30am - - - - - SSW 37 43 20 23 - - -
26/11:00am - - - - - SSW 33 41 18 22 - - -
26/10:30am - - - - - SSW 33 39 18 21 - - -
26/10:00am - - - - - S 30 37 16 20 - - -
26/09:30am - - - - - SSW 32 37 17 20 - - -
26/09:00am - - - - - SSW 37 43 20 23 - - -
26/08:30am - - - - - S 35 41 19 22 - - -
26/08:00am - - - - - SSW 35 39 19 21 - - -
26/07:30am - - - - - SSW 32 35 17 19 - - -
26/07:00am - - - - - SSW 32 35 17 19 - - -
26/06:30am - - - - - SSW 35 39 19 21 - - -
26/06:00am - - - - - SSW 32 35 17 19 - - -
26/05:30am - - - - - SSW 33 39 18 21 - - -
26/05:00am - - - - - WSW 19 26 10 14 - - -
26/04:30am - - - - - NW 2 4 1 2 - - -
26/04:00am - - - - - N 4 6 2 3 - - -
26/03:30am - - - - - NNE 9 15 5 8 - - -
26/03:00am - - - - - N 6 9 3 5 - - -
26/02:30am - - - - - NNE 7 13 4 7 - - -
26/02:00am - - - - - NE 2 6 1 3 - - -
26/01:30am - - - - - N 7 11 4 6 - - -
26/01:00am - - - - - NE 9 13 5 7 - - -
26/12:30am - - - - - NNE 15 24 8 13 - - -
26/12:00am - - - - - ENE 6 11 3 6 - - -
 
Date/Time
EDT
Temp
°C
App
Temp
°C
Dew
Point
°C
Rel
Hum
%
Delta-T
°C
Wind Press
QNH
hPa
Press
MSL
hPa
Rain since
9am
mm
Dir  Spd
km/h
Gust
km/h
Spd
kts
Gust
kts
25/11:30pm - - - - - N 9 13 5 7 - - -
25/11:00pm - - - - - NW 4 7 2 4 - - -
25/10:30pm - - - - - SW 9 13 5 7 - - -
25/10:00pm - - - - - SSW 19 22 10 12 - - -
25/09:30pm - - - - - SSW 33 41 18 22 - - -
25/09:00pm - - - - - SW 39 46 21 25 - - -
25/08:30pm - - - - - SSW 28 41 15 22 - - -
25/08:00pm - - - - - SSE 19 22 10 12 - - -
25/07:30pm - - - - - S 24 28 13 15 - - -
25/07:00pm - - - - - S 22 28 12 15 - - -
25/06:30pm - - - - - S 19 22 10 12 - - -
25/06:00pm - - - - - SSW 20 26 11 14 - - -
25/05:30pm - - - - - SSE 22 32 12 17 - - -
25/05:00pm - - - - - S 37 48 20 26 - - -
25/04:54pm - - - - - SSW 46 63 25 34 - - -
25/04:37pm - - - - - S 35 57 19 31 - - -
25/04:36pm - - - - - S 33 43 18 23 - - -
25/04:30pm - - - - - SSE 32 43 17 23 - - -
25/04:00pm - - - - - SW 20 26 11 14 - - -
25/03:30pm - - - - - SW 19 24 10 13 - - -
25/03:00pm - - - - - S 7 19 4 10 - - -
25/02:30pm - - - - - S 22 26 12 14 - - -
25/02:00pm - - - - - S 24 32 13 17 - - -
25/01:32pm - - - - - SSW 46 65 25 35 - - -
25/01:30pm - - - - - SSW 48 65 26 35 - - -
25/01:24pm - - - - - S 43 65 23 35 - - -
25/01:19pm - - - - - SSE 30 50 16 27 - - -
25/01:02pm - - - - - WNW 37 57 20 31 - - -
25/01:01pm - - - - - WNW 37 57 20 31 - - -
25/01:00pm - - - - - WNW 39 57 21 31 - - -
25/12:55pm - - - - - NW 37 56 20 30 - - -
25/12:30pm - - - - - NW 39 54 21 29 - - -
25/12:26pm - - - - - NNW 37 54 20 29 - - -
25/12:13pm - - - - - N 28 50 15 27 - - -
25/12:00pm - - - - - N 22 37 12 20 - - -
25/11:30am - - - - - N 26 37 14 20 - - -
25/11:00am - - - - - N 20 30 11 16 - - -
25/10:30am - - - - - NNE 19 24 10 13 - - -
25/10:00am - - - - - N 22 30 12 16 - - -
25/09:30am - - - - - NNE 22 32 12 17 - - -
25/09:00am - - - - - N 22 35 12 19 - - -
25/08:30am - - - - - NNE 22 33 12 18 - - -
25/08:00am - - - - - N 26 33 14 18 - - -
25/07:30am - - - - - N 24 33 13 18 - - -
25/07:00am - - - - - N 22 33 12 18 - - -
25/06:30am - - - - - N 24 35 13 19 - - -
25/06:00am - - - - - N 20 28 11 15 - - -
25/05:30am - - - - - NNE 19 24 10 13 - - -
25/05:00am - - - - - N 17 22 9 12 - - -
25/04:30am - - - - - NNE 19 26 10 14 - - -
25/04:00am - - - - - NNE 19 24 10 13 - - -
25/03:30am - - - - - NNE 20 26 11 14 - - -
25/03:00am - - - - - NNE 20 26 11 14 - - -
25/02:30am - - - - - NNE 20 28 11 15 - - -
25/02:00am - - - - - NNE 19 24 10 13 - - -
25/01:30am - - - - - NNE 15 22 8 12 - - -
25/01:00am - - - - - NNE 17 24 9 13 - - -
25/12:30am - - - - - NNE 15 20 8 11 - - -
25/12:00am - - - - - NNE 13 19 7 10 - - -
 
Date/Time
EDT
Temp
°C
App
Temp
°C
Dew
Point
°C
Rel
Hum
%
Delta-T
°C
Wind Press
QNH
hPa
Press
MSL
hPa
Rain since
9am
mm
Dir  Spd
km/h
Gust
km/h
Spd
kts
Gust
kts
24/11:30pm - - - - - NNE 15 24 8 13 - - -
24/11:00pm - - - - - NE 15 20 8 11 - - -
24/10:30pm - - - - - NNE 13 17 7 9 - - -
24/10:00pm - - - - - NE 13 19 7 10 - - -
24/09:30pm - - - - - NE 11 17 6 9 - - -
24/09:00pm - - - - - NE 13 17 7 9 - - -
24/08:30pm - - - - - ENE 7 13 4 7 - - -
24/08:00pm - - - - - NNE 4 7 2 4 - - -
24/07:30pm - - - - - NE 11 17 6 9 - - -
24/07:00pm - - - - - SSE 9 15 5 8 - - -
24/06:30pm - - - - - SSE 11 19 6 10 - - -
24/06:00pm - - - - - S 22 26 12 14 - - -
24/05:30pm - - - - - S 22 26 12 14 - - -
24/05:00pm - - - - - S 19 24 10 13 - - -
24/04:30pm - - - - - S 20 26 11 14 - - -
24/04:00pm - - - - - S 22 26 12 14 - - -
24/03:30pm - - - - - S 19 22 10 12 - - -
24/03:00pm - - - - - SSE 13 17 7 9 - - -
24/02:30pm - - - - - S 7 9 4 5 - - -
24/02:00pm - - - - - SSW 6 7 3 4 - - -
24/01:30pm - - - - - SSW 9 9 5 5 - - -
24/01:00pm - - - - - SSW 7 9 4 5 - - -
24/12:30pm - - - - - S 7 9 4 5 - - -
24/12:00pm - - - - - S 9 11 5 6 - - -
24/11:30am - - - - - S 7 9 4 5 - - -
24/11:00am - - - - - S 11 13 6 7 - - -
24/10:30am - - - - - SSW 13 17 7 9 - - -
24/10:00am - - - - - S 7 9 4 5 - - -
24/09:30am - - - - - SSE 2 6 1 3 - - -
24/09:00am - - - - - ENE 7 11 4 6 - - -
24/08:30am - - - - - SE 2 4 1 2 - - -
24/08:00am - - - - - NE 6 9 3 5 - - -
24/07:30am - - - - - NNE 9 13 5 7 - - -
24/07:00am - - - - - NNE 6 7 3 4 - - -
24/06:30am - - - - - NE 6 7 3 4 - - -
24/06:00am - - - - - NE 6 7 3 4 - - -
24/05:30am - - - - - NE 2 4 1 2 - - -
24/05:00am - - - - - SE 4 6 2 3 - - -
24/04:30am - - - - - S 4 9 2 5 - - -
24/04:00am - - - - - WSW 2 4 1 2 - - -
24/03:30am - - - - - WSW 4 6 2 3 - - -
24/03:00am - - - - - WSW 7 9 4 5 - - -
24/02:30am - - - - - NW 7 9 4 5 - - -
24/02:00am - - - - - WNW 7 11 4 6 - - -
24/01:30am - - - - - W 9 11 5 6 - - -
24/01:00am - - - - - W 13 17 7 9 - - -
24/12:30am - - - - - WNW 9 11 5 6 - - -
24/12:00am - - - - - WNW 11 15 6 8 - - -
 
Date/Time
EDT
Temp
°C
App
Temp
°C
Dew
Point
°C
Rel
Hum
%
Delta-T
°C
Wind Press
QNH
hPa
Press
MSL
hPa
Rain since
9am
mm
Dir  Spd
km/h
Gust
km/h
Spd
kts
Gust
kts
23/11:30pm - - - - - SSW 4 6 2 3 - - -
23/11:00pm - - - - - ENE 7 11 4 6 - - -
23/10:30pm - - - - - SSE 6 6 3 3 - - -
23/10:00pm - - - - - S 13 17 7 9 - - -
23/09:30pm - - - - - S 20 24 11 13 - - -
23/09:00pm - - - - - S 26 30 14 16 - - -
23/08:30pm - - - - - SSW 28 33 15 18 - - -

Latest Capital City Observations: Canberra | Sydney | Melbourne | Brisbane | Adelaide | Perth | Hobart | Darwin

Other formats

Comma delimited format used in spreadsheet applications
http://www.bom.gov.au/fwo/IDV60901/IDV60901.95864.axf

JavaScript Object Notation format (JSON) in row-major order
http://www.bom.gov.au/fwo/IDV60901/IDV60901.95864.json

Data quality

Most of these data are generated automatically and are frequently updated. Quality checks on data are not normally performed. It is possible for incorrect values to appear. Refer to information at About Latest Weather Observations and please check the disclaimer before using these data.